createdAt,value
2022-10-02T00:00:04.786Z,1.67
2022-10-02T00:02:44.989Z,0.90
2022-10-02T00:05:24.404Z,1.53
2022-10-02T00:08:06.908Z,1.53
2022-10-02T00:10:44.795Z,1.10
2022-10-02T00:13:46.427Z,3.50
2022-10-02T00:16:29.458Z,2.03
2022-10-02T00:18:57.585Z,3.63
2022-10-02T00:22:13.483Z,1.97
2022-10-02T00:24:50.871Z,2.90
2022-10-02T00:27:56.562Z,1.87
2022-10-02T00:30:23.402Z,2.97
2022-10-02T00:33:47.927Z,2.47
2022-10-02T00:36:33.022Z,4.60
2022-10-02T00:39:44.693Z,2.23
2022-10-02T00:42:52.370Z,3.20
2022-10-02T00:46:01.421Z,2.17
2022-10-02T00:48:52.637Z,2.73
2022-10-02T00:52:15.265Z,1.37
2022-10-02T00:55:20.647Z,4.20
2022-10-02T00:58:31.878Z,3.00
2022-10-02T01:01:17.864Z,3.60
2022-10-02T01:03:56.500Z,4.30
2022-10-02T01:06:25.905Z,3.63
2022-10-02T01:08:52.849Z,3.50
2022-10-02T01:11:21.893Z,1.57
2022-10-02T01:13:49.173Z,3.23
2022-10-02T01:16:16.662Z,4.90
2022-10-02T01:18:46.999Z,2.83
2022-10-02T01:21:33.203Z,3.13
2022-10-02T01:24:16.210Z,1.93
2022-10-02T01:26:43.087Z,3.43
2022-10-02T01:29:09.927Z,2.23
2022-10-02T01:31:37.297Z,2.43
2022-10-02T01:34:04.847Z,2.27
2022-10-02T01:36:32.178Z,2.13
2022-10-02T01:39:00.012Z,1.90
2022-10-02T01:41:26.848Z,2.23
2022-10-02T01:44:00.563Z,2.50
2022-10-02T01:46:51.954Z,4.00
2022-10-02T01:49:59.202Z,2.53
2022-10-02T01:52:51.981Z,2.57
2022-10-02T01:55:57.419Z,1.40
2022-10-02T01:58:34.238Z,1.67
2022-10-02T02:01:08.030Z,2.37
2022-10-02T02:03:39.970Z,2.03
2022-10-02T02:06:29.712Z,3.37
2022-10-02T02:09:32.929Z,2.43
2022-10-02T02:12:22.449Z,2.70
2022-10-02T02:15:03.698Z,4.27
2022-10-02T02:18:11.532Z,2.10
2022-10-02T02:20:51.866Z,2.93
2022-10-02T02:23:25.873Z,2.33
2022-10-02T02:25:59.656Z,2.63
2022-10-02T02:28:30.712Z,2.27
2022-10-02T02:30:59.236Z,4.07
2022-10-02T02:33:39.351Z,2.37
2022-10-02T02:36:13.403Z,3.80
2022-10-02T02:38:47.970Z,5.17
2022-10-02T02:41:24.182Z,6.23
2022-10-02T02:44:21.904Z,2.13
2022-10-02T02:47:22.502Z,2.63
2022-10-02T02:50:00.434Z,4.43
2022-10-02T02:52:45.597Z,3.57
2022-10-02T02:55:19.082Z,1.77
2022-10-02T02:58:02.296Z,2.13
2022-10-02T03:00:29.204Z,3.67
2022-10-02T03:02:56.010Z,2.37
2022-10-02T03:05:25.162Z,2.03
2022-10-02T03:08:31.500Z,3.33
2022-10-02T03:11:32.892Z,2.50
2022-10-02T03:14:11.082Z,2.13
2022-10-02T03:17:10.666Z,3.57
2022-10-02T03:19:55.034Z,3.23
2022-10-02T03:22:59.978Z,2.90
2022-10-02T03:25:47.206Z,4.60
2022-10-02T03:28:55.136Z,4.70
2022-10-02T03:31:25.068Z,4.70
2022-10-02T03:33:53.815Z,3.90
2022-10-02T03:36:22.425Z,1.97
2022-10-02T03:39:06.225Z,4.73
2022-10-02T03:41:36.996Z,4.60
2022-10-02T03:44:03.965Z,4.33
2022-10-02T03:46:30.848Z,2.50
2022-10-02T03:48:57.703Z,4.17
2022-10-02T03:51:24.582Z,2.33
2022-10-02T03:53:52.267Z,3.43
2022-10-02T03:56:47.617Z,2.10
2022-10-02T03:59:29.595Z,3.80
2022-10-02T04:01:58.187Z,2.47
2022-10-02T04:04:47.145Z,4.53
2022-10-02T04:07:24.720Z,2.37
2022-10-02T04:10:12.700Z,2.70
2022-10-02T04:12:49.555Z,3.83
2022-10-02T04:15:28.146Z,2.03
2022-10-02T04:18:21.000Z,4.50
2022-10-02T04:20:53.409Z,2.70
2022-10-02T04:23:32.611Z,4.70
2022-10-02T04:26:17.053Z,2.77
2022-10-02T04:28:52.368Z,2.10
2022-10-02T04:31:19.207Z,3.47
2022-10-02T04:33:46.056Z,5.03
2022-10-02T04:36:38.602Z,3.07
2022-10-02T04:39:34.713Z,1.87
2022-10-02T04:42:23.677Z,3.20
2022-10-02T04:45:12.555Z,4.47
2022-10-02T04:48:25.757Z,3.87
2022-10-02T04:51:20.302Z,4.43
2022-10-02T04:54:31.425Z,4.50
2022-10-02T04:57:19.540Z,3.30
2022-10-02T05:00:08.657Z,5.23
2022-10-02T05:03:38.293Z,3.97
2022-10-02T05:07:04.475Z,5.67
2022-10-02T05:10:01.737Z,6.17
2022-10-02T05:13:08.923Z,4.17
2022-10-02T05:16:28.492Z,3.20
2022-10-02T05:19:42.279Z,2.53
2022-10-02T05:22:46.946Z,1.83
2022-10-02T05:25:36.953Z,4.87
2022-10-02T05:28:43.388Z,5.60
2022-10-02T05:31:28.228Z,2.93
2022-10-02T05:34:04.410Z,5.07
2022-10-02T05:37:04.409Z,3.23
2022-10-02T05:39:42.550Z,4.60
2022-10-02T05:42:32.851Z,2.97
2022-10-02T05:45:25.517Z,3.03
2022-10-02T05:48:03.104Z,3.60
2022-10-02T05:50:36.512Z,3.33
2022-10-02T05:53:21.710Z,3.10
2022-10-02T05:56:16.371Z,5.27
2022-10-02T05:58:56.743Z,5.70
2022-10-02T06:01:35.471Z,3.90
2022-10-02T06:04:14.038Z,5.37
2022-10-02T06:06:49.057Z,3.77
2022-10-02T06:09:23.021Z,4.57
2022-10-02T06:11:49.720Z,2.83
2022-10-02T06:14:39.501Z,5.40
2022-10-02T06:17:20.137Z,4.67
2022-10-02T06:20:31.809Z,6.50
2022-10-02T06:23:21.891Z,2.77
2022-10-02T06:25:58.242Z,3.90
2022-10-02T06:29:17.458Z,2.07
2022-10-02T06:32:00.092Z,3.23
2022-10-02T06:34:27.032Z,3.93
2022-10-02T06:37:34.565Z,5.87
2022-10-02T06:40:24.425Z,2.57
2022-10-02T06:43:03.302Z,3.63
2022-10-02T06:46:03.061Z,2.70
2022-10-02T06:48:58.612Z,2.13
2022-10-02T06:51:53.923Z,4.03
2022-10-02T06:54:47.608Z,4.60
2022-10-02T06:57:37.384Z,5.83
2022-10-02T07:00:14.651Z,2.87
2022-10-02T07:03:16.952Z,4.77
2022-10-02T07:05:58.223Z,3.83
2022-10-02T07:08:34.074Z,3.97
2022-10-02T07:11:43.059Z,2.30
2022-10-02T07:14:51.077Z,5.80
2022-10-02T07:17:53.059Z,3.33
2022-10-02T07:20:59.722Z,4.10
2022-10-02T07:23:58.887Z,4.13
2022-10-02T07:26:49.678Z,5.03
2022-10-02T07:29:46.837Z,4.53
2022-10-02T07:32:28.726Z,4.70
2022-10-02T07:35:25.827Z,3.33
2022-10-02T07:38:14.409Z,6.03
2022-10-02T07:41:11.830Z,3.30
2022-10-02T07:43:47.754Z,5.37
2022-10-02T07:46:24.040Z,6.00
2022-10-02T07:49:14.948Z,5.90
2022-10-02T07:51:56.837Z,2.73
2022-10-02T07:55:09.731Z,4.17
2022-10-02T07:57:59.541Z,6.43
2022-10-02T08:00:31.324Z,7.40
2022-10-02T08:03:04.838Z,6.40
2022-10-02T08:05:38.359Z,5.87
2022-10-02T08:08:23.661Z,4.17
2022-10-02T08:11:02.097Z,6.13
2022-10-02T08:13:39.729Z,5.20
2022-10-02T08:16:08.636Z,5.23
2022-10-02T08:18:48.481Z,7.07
2022-10-02T08:21:20.365Z,3.87
2022-10-02T08:23:59.825Z,7.27
2022-10-02T08:26:47.612Z,5.00
2022-10-02T08:29:25.510Z,6.57
2022-10-02T08:31:53.241Z,6.83
2022-10-02T08:34:23.785Z,4.93
2022-10-02T08:36:56.278Z,8.63
2022-10-02T08:39:44.143Z,5.77
2022-10-02T08:42:45.485Z,5.37
2022-10-02T08:45:36.165Z,5.03
2022-10-02T08:48:34.088Z,5.07
2022-10-02T08:51:42.061Z,4.33
2022-10-02T08:54:20.140Z,5.87
2022-10-02T08:57:19.513Z,3.97
2022-10-02T09:00:16.977Z,4.43
2022-10-02T09:03:08.417Z,4.80
2022-10-02T09:05:53.024Z,6.13
2022-10-02T09:08:45.385Z,5.47
2022-10-02T09:11:45.161Z,4.13
2022-10-02T09:14:39.377Z,5.43
2022-10-02T09:17:35.634Z,3.17
2022-10-02T09:20:12.000Z,4.83
2022-10-02T09:23:03.388Z,4.67
2022-10-02T09:26:04.617Z,4.63
2022-10-02T09:29:09.332Z,2.83
2022-10-02T09:32:12.720Z,4.90
2022-10-02T09:35:30.548Z,6.43
2022-10-02T09:38:21.152Z,4.97
2022-10-02T09:41:59.137Z,5.87
2022-10-02T09:45:01.747Z,3.03
2022-10-02T09:48:23.600Z,5.63
2022-10-02T09:51:14.375Z,3.53
2022-10-02T09:54:18.069Z,5.57
2022-10-02T09:57:31.842Z,5.37
2022-10-02T10:00:22.092Z,3.83
2022-10-02T10:03:36.305Z,2.97
2022-10-02T10:06:39.106Z,6.27
2022-10-02T10:09:26.878Z,5.17
2022-10-02T10:12:24.452Z,7.03
2022-10-02T10:15:09.427Z,5.63
2022-10-02T10:18:26.533Z,5.27
2022-10-02T10:21:30.460Z,4.00
2022-10-02T10:24:09.113Z,6.57
2022-10-02T10:27:01.339Z,5.03
2022-10-02T10:30:00.298Z,4.07
2022-10-02T10:33:08.147Z,5.93
2022-10-02T10:36:00.702Z,3.80
2022-10-02T10:38:58.812Z,5.17
2022-10-02T10:42:06.208Z,4.80
2022-10-02T10:45:00.926Z,5.07
2022-10-02T10:47:43.616Z,5.30
2022-10-02T10:50:38.474Z,4.63
2022-10-02T10:53:50.577Z,4.57
2022-10-02T10:56:40.460Z,6.20
2022-10-02T10:59:44.805Z,4.53
2022-10-02T11:02:53.178Z,3.77
2022-10-02T11:05:51.435Z,3.93
2022-10-02T11:08:54.239Z,4.03
2022-10-02T11:11:45.237Z,2.50
2022-10-02T11:14:43.851Z,4.73
2022-10-02T11:17:25.558Z,3.90
2022-10-02T11:20:04.326Z,4.97
2022-10-02T11:23:16.187Z,6.07
2022-10-02T11:26:02.144Z,3.70
2022-10-02T11:28:47.306Z,3.70
2022-10-02T11:31:46.987Z,4.57
2022-10-02T11:35:00.782Z,4.67
2022-10-02T11:38:03.787Z,3.97
2022-10-02T11:41:08.986Z,5.37
2022-10-02T11:44:24.612Z,4.27
2022-10-02T11:47:20.000Z,2.30
2022-10-02T11:50:15.687Z,3.40
2022-10-02T11:53:19.730Z,4.83
2022-10-02T11:56:14.278Z,2.40
2022-10-02T11:59:10.022Z,4.20
2022-10-02T12:02:08.574Z,1.53
2022-10-02T12:05:18.334Z,2.97
2022-10-02T12:08:01.556Z,3.70
2022-10-02T12:11:12.774Z,3.33
2022-10-02T12:14:01.393Z,2.83
2022-10-02T12:16:52.641Z,4.20
2022-10-02T12:20:13.007Z,4.43
2022-10-02T12:23:54.270Z,8.33
2022-10-02T12:26:51.369Z,4.27
2022-10-02T12:29:42.122Z,2.90
2022-10-02T12:32:37.343Z,4.13
2022-10-02T12:35:38.688Z,2.30
2022-10-02T12:38:26.592Z,4.00
2022-10-02T12:41:25.001Z,3.67
2022-10-02T12:44:32.704Z,6.07
2022-10-02T12:47:02.237Z,2.60
2022-10-02T12:49:47.453Z,2.17
2022-10-02T12:53:07.831Z,0.53
2022-10-02T12:55:55.814Z,0.80
2022-10-02T12:58:49.949Z,2.83
2022-10-02T13:01:44.386Z,0.60
2022-10-02T13:04:16.927Z,0.50
2022-10-02T13:07:31.466Z,0.43
2022-10-02T13:10:03.934Z,0.40
2022-10-02T13:13:22.561Z,1.03
2022-10-02T13:16:22.887Z,1.33
2022-10-02T13:19:23.451Z,0.50
2022-10-02T13:22:31.667Z,1.33
2022-10-02T13:25:26.250Z,1.10
2022-10-02T13:28:09.592Z,0.40
2022-10-02T13:30:53.888Z,0.50
2022-10-02T13:34:01.262Z,0.40
2022-10-02T13:37:02.020Z,0.40
2022-10-02T13:39:46.908Z,0.40
2022-10-02T13:43:15.592Z,1.13
2022-10-02T13:46:22.637Z,0.70
2022-10-02T13:49:31.832Z,1.30
2022-10-02T13:52:44.147Z,0.60
2022-10-02T13:55:29.106Z,0.70
2022-10-02T13:58:19.912Z,2.37
2022-10-02T14:01:12.600Z,0.77
2022-10-02T14:04:19.322Z,1.50
2022-10-02T14:07:12.316Z,1.10
2022-10-02T14:09:54.030Z,0.30
2022-10-02T14:12:53.999Z,0.30
2022-10-02T14:16:08.524Z,1.07
2022-10-02T14:18:53.036Z,0.47
2022-10-02T14:21:30.943Z,0.70
2022-10-02T14:24:47.045Z,0.50
2022-10-02T14:27:44.396Z,1.30
2022-10-02T14:30:39.915Z,3.10
2022-10-02T14:34:02.269Z,3.77
2022-10-02T14:36:42.857Z,4.77
2022-10-02T14:39:37.783Z,2.13
2022-10-02T14:42:42.323Z,4.73
2022-10-02T14:46:04.750Z,3.97
2022-10-02T14:48:56.225Z,3.93
2022-10-02T14:51:29.007Z,1.67
2022-10-02T14:54:07.453Z,1.50
2022-10-02T14:56:59.573Z,1.23
2022-10-02T14:59:50.457Z,0.70
2022-10-02T15:02:53.904Z,1.43
2022-10-02T15:05:36.065Z,0.70
2022-10-02T15:08:12.828Z,0.60
2022-10-02T15:10:42.323Z,0.80
2022-10-02T15:13:24.613Z,2.23
2022-10-02T15:16:17.877Z,0.70
2022-10-02T15:19:08.106Z,0.77
2022-10-02T15:22:23.278Z,0.70
2022-10-02T15:24:57.753Z,0.93
2022-10-02T15:27:54.996Z,1.17
2022-10-02T15:30:23.840Z,1.07
2022-10-02T15:33:18.527Z,1.20
2022-10-02T15:36:10.184Z,1.10
2022-10-02T15:38:49.470Z,1.70
2022-10-02T15:41:51.452Z,2.23
2022-10-02T15:45:11.115Z,1.23
2022-10-02T15:48:21.261Z,1.13
2022-10-02T15:51:11.780Z,1.63
2022-10-02T15:54:31.324Z,1.90
2022-10-02T15:57:25.892Z,1.93
2022-10-02T16:00:14.474Z,2.33
2022-10-02T16:02:56.524Z,1.37
2022-10-02T16:05:51.236Z,1.63
2022-10-02T16:08:45.213Z,0.70
2022-10-02T16:11:33.441Z,1.00
2022-10-02T16:14:18.938Z,0.90
2022-10-02T16:17:23.944Z,2.10
2022-10-02T16:20:35.864Z,1.43
2022-10-02T16:23:33.109Z,1.03
2022-10-02T16:26:10.631Z,1.10
2022-10-02T16:28:51.805Z,1.57
2022-10-02T16:31:53.190Z,1.47
2022-10-02T16:35:02.342Z,1.53
2022-10-02T16:37:46.652Z,1.40
2022-10-02T16:40:23.297Z,1.37
2022-10-02T16:43:23.703Z,3.03
2022-10-02T16:46:09.023Z,1.10
2022-10-02T16:48:48.496Z,1.53
2022-10-02T16:51:55.915Z,1.20
2022-10-02T16:54:38.432Z,2.23
2022-10-02T16:57:22.301Z,1.67
2022-10-02T17:00:15.038Z,1.47
2022-10-02T17:02:52.112Z,2.13
2022-10-02T17:05:47.020Z,2.00
2022-10-02T17:08:38.235Z,1.60
2022-10-02T17:11:30.058Z,1.60
2022-10-02T17:14:40.845Z,1.80
2022-10-02T17:17:31.269Z,1.80
2022-10-02T17:20:01.064Z,2.20
2022-10-02T17:22:43.306Z,2.03
2022-10-02T17:25:23.004Z,2.00
2022-10-02T17:28:06.437Z,1.93
2022-10-02T17:31:01.483Z,3.63
2022-10-02T17:33:42.917Z,2.10
2022-10-02T17:36:35.773Z,2.00
2022-10-02T17:39:32.539Z,2.10
2022-10-02T17:42:14.149Z,2.87
2022-10-02T17:45:04.252Z,4.70
2022-10-02T17:48:10.204Z,2.90
2022-10-02T17:50:51.643Z,3.37
2022-10-02T17:53:55.793Z,2.67
2022-10-02T17:56:53.445Z,4.10
2022-10-02T17:59:53.420Z,2.30
2022-10-02T18:03:05.849Z,3.67
2022-10-02T18:05:56.287Z,2.97
2022-10-02T18:08:51.929Z,2.50
2022-10-02T18:11:21.330Z,2.40
2022-10-02T18:14:07.482Z,6.27
2022-10-02T18:17:31.062Z,3.80
2022-10-02T18:20:12.110Z,3.30
2022-10-02T18:22:55.553Z,2.30
2022-10-02T18:25:36.868Z,2.27
2022-10-02T18:28:23.101Z,3.13
2022-10-02T18:31:07.117Z,1.70
2022-10-02T18:34:08.506Z,1.97
2022-10-02T18:37:09.611Z,4.23
2022-10-02T18:40:11.137Z,2.60
2022-10-02T18:43:06.144Z,1.47
2022-10-02T18:46:27.485Z,2.10
2022-10-02T18:49:03.150Z,2.83
2022-10-02T18:52:07.018Z,1.60
2022-10-02T18:55:18.568Z,4.33
2022-10-02T18:57:55.692Z,2.20
2022-10-02T19:00:24.977Z,3.57
2022-10-02T19:03:42.422Z,6.23
2022-10-02T19:06:52.279Z,3.70
2022-10-02T19:09:29.919Z,2.00
2022-10-02T19:12:01.588Z,2.37
2022-10-02T19:14:45.485Z,2.33
2022-10-02T19:17:18.715Z,1.47
2022-10-02T19:19:45.488Z,3.53
2022-10-02T19:22:25.168Z,2.07
2022-10-02T19:25:16.226Z,1.57
2022-10-02T19:27:50.401Z,1.57
2022-10-02T19:30:30.421Z,1.53
2022-10-02T19:33:02.564Z,1.10
2022-10-02T19:35:33.535Z,3.00
2022-10-02T19:38:25.707Z,1.33
2022-10-02T19:40:55.623Z,3.00
2022-10-02T19:43:33.686Z,1.30
2022-10-02T19:46:05.440Z,1.23
2022-10-02T19:48:33.411Z,1.20
2022-10-02T19:51:04.878Z,1.40
2022-10-02T19:53:41.588Z,1.63
2022-10-02T19:56:29.586Z,1.57
2022-10-02T19:59:04.544Z,1.50
2022-10-02T20:01:49.426Z,1.57
2022-10-02T20:04:21.899Z,1.93
2022-10-02T20:06:54.700Z,1.57
2022-10-02T20:09:38.362Z,2.10
2022-10-02T20:12:22.269Z,4.23
2022-10-02T20:15:17.690Z,2.67
2022-10-02T20:17:44.609Z,2.00
2022-10-02T20:20:16.823Z,1.37
2022-10-02T20:22:56.587Z,1.40
2022-10-02T20:25:37.310Z,2.13
2022-10-02T20:28:34.896Z,1.47
2022-10-02T20:31:11.540Z,1.63
2022-10-02T20:33:48.837Z,1.90
2022-10-02T20:36:27.116Z,1.93
2022-10-02T20:39:07.330Z,1.60
2022-10-02T20:42:03.566Z,1.57
2022-10-02T20:44:34.004Z,1.87
2022-10-02T20:47:55.056Z,1.67
2022-10-02T20:50:51.489Z,4.43
2022-10-02T20:54:23.432Z,1.50
2022-10-02T20:58:00.543Z,4.37
2022-10-02T21:00:53.961Z,2.03
2022-10-02T21:03:45.565Z,2.37
2022-10-02T21:07:10.731Z,1.40
2022-10-02T21:09:46.038Z,1.77
2022-10-02T21:12:34.797Z,1.30
2022-10-02T21:15:06.992Z,1.67
2022-10-02T21:17:58.700Z,1.77
2022-10-02T21:21:13.221Z,1.30
2022-10-02T21:24:19.704Z,1.60
2022-10-02T21:27:02.247Z,1.53
2022-10-02T21:29:43.910Z,2.30
2022-10-02T21:32:34.853Z,1.70
2022-10-02T21:35:53.252Z,2.20
2022-10-02T21:38:57.053Z,2.30
2022-10-02T21:42:01.944Z,2.00
2022-10-02T21:45:00.323Z,1.80
2022-10-02T21:48:18.690Z,2.07
2022-10-02T21:51:10.411Z,2.13
2022-10-02T21:54:24.882Z,1.50
2022-10-02T21:57:11.780Z,2.20
2022-10-02T21:59:43.657Z,1.37
2022-10-02T22:02:34.952Z,1.70
2022-10-02T22:05:29.302Z,2.30
2022-10-02T22:08:08.380Z,1.93
2022-10-02T22:11:02.469Z,1.93
2022-10-02T22:13:38.715Z,3.90
2022-10-02T22:16:42.937Z,2.37
2022-10-02T22:20:06.804Z,2.63
2022-10-02T22:22:48.425Z,2.27
2022-10-02T22:25:49.715Z,2.50
2022-10-02T22:28:22.674Z,2.70
2022-10-02T22:30:55.650Z,5.07
2022-10-02T22:33:54.945Z,3.20
2022-10-02T22:36:56.899Z,4.53
2022-10-02T22:39:45.526Z,3.47
2022-10-02T22:42:23.779Z,5.23
2022-10-02T22:44:54.416Z,4.47
2022-10-02T22:47:37.307Z,4.77
2022-10-02T22:50:23.149Z,3.37
2022-10-02T22:53:20.868Z,3.27
2022-10-02T22:55:53.009Z,3.70
2022-10-02T22:58:45.455Z,3.37
2022-10-02T23:01:37.782Z,2.93
2022-10-02T23:04:34.681Z,3.27
2022-10-02T23:07:23.203Z,4.20
2022-10-02T23:10:05.877Z,4.57
2022-10-02T23:12:44.912Z,4.57
2022-10-02T23:15:27.203Z,6.40
2022-10-02T23:18:06.677Z,5.10
2022-10-02T23:20:39.059Z,3.93
2022-10-02T23:23:32.321Z,4.03
2022-10-02T23:26:13.903Z,3.97
2022-10-02T23:28:56.329Z,4.40
2022-10-02T23:31:33.270Z,5.23
2022-10-02T23:34:32.587Z,4.37
2022-10-02T23:37:17.009Z,4.90
2022-10-02T23:39:43.654Z,4.47
2022-10-02T23:42:20.105Z,4.43
2022-10-02T23:45:19.357Z,4.23
2022-10-02T23:48:07.661Z,5.73
2022-10-02T23:51:01.888Z,5.77
2022-10-02T23:53:43.583Z,4.40
2022-10-02T23:56:44.406Z,4.13
2022-10-02T23:59:37.791Z,5.20
